Etusivu
METAR-TAF:

METAR-TAF

Lentoasemat :

Edson, Alberta, Kanada

Leveyspiiri: 53-35N, Pituuspiiri: 116-28W, korkeus merenpinnasta: 921 m

Tämänhetkinen sää

Tämä raportti tehtiin 1 tunti ja 54 minuuttia sitten, kello 13.00 UTC
Tuuli 4 kn luoteesta
Lämpötila -3°C
Kosteus 68%
Ilmanpaine 1023 hPa
Näkyvyys: 14.5 km
Pilvistä 8000 ft:n korkeudessa

METAR: CYET 251300Z AUTO 31004KT 9SM OVC080 M03/M08 A3022 RMK SLP271

Aika: 08:54 (14:54 UTC)


TAF: puuttuu

Säähavainnot ja -ennusteet yli 4000 lentoasemalta (METAR- ja TAF-raportit).

Käytössä olevat sääasemat on merkitty karttaan keltaisilla ja punaisilla pisteillä.

Aseta hiiri pisteen päälle nähdäksesi sääaseman nimen.

Klikkaa sitten nähdäksesi säähavainnot ja -ennusteet.

Kartan vaihtaminen: klikkaa mustalla rastilla varustettuja vihreitä pisteitä, niin voit zoomata sisään; viivalla varustettua vihreää pistettä, niin voit zoomata ulos tai vihreitä nuolia, niin pääset viereisille kartoille.


METAR-TAF: